Terminal Aerodrome Forecast
Issued by NWS Billings, MT

Home | Current Version | Previous Version | Text Only | Print | Product List | Glossary On
Versions: 1 2 3 4 5 6 7 8 9 10 11 12 13 14 15 16 17 18 19 20 21 22 23 24 25 26
000
FTUS45 KBYZ 290802 AAA
TAFMLS
TAF AMD
KMLS 290802Z 2908/3006 VRB04KT P6SM VCFG SCT008
     FM291600 15006KT P6SM SKC
     FM300200 VRB05KT P6SM SCT005 SCT200=

USA.gov is the U.S. government's official web portal to all federal, state and local government web resources and services.